sensor_id;sensor_type;location;lat;lon;timestamp;P1;P2;P0
62591;PMS5003;48659;41.622;2.276;2024-01-16T00:00:13;30;26;
62591;PMS5003;48659;41.622;2.276;2024-01-16T00:02:42;34;31;
62591;PMS5003;48659;41.622;2.276;2024-01-16T00:05:10;38;32;
62591;PMS5003;48659;41.622;2.276;2024-01-16T00:07:40;36;35;
62591;PMS5003;48659;41.622;2.276;2024-01-16T00:10:08;40;35;
62591;PMS5003;48659;41.622;2.276;2024-01-16T00:12:36;36;33;
62591;PMS5003;48659;41.622;2.276;2024-01-16T00:15:05;38;33;
62591;PMS5003;48659;41.622;2.276;2024-01-16T00:17:34;31;31;
62591;PMS5003;48659;41.622;2.276;2024-01-16T00:20:02;38;34;
62591;PMS5003;48659;41.622;2.276;2024-01-16T00:22:29;41;34;
62591;PMS5003;48659;41.622;2.276;2024-01-16T00:25:01;33;29;
62591;PMS5003;48659;41.622;2.276;2024-01-16T00:27:28;30;27;
62591;PMS5003;48659;41.622;2.276;2024-01-16T00:29:56;30;26;
62591;PMS5003;48659;41.622;2.276;2024-01-16T00:32:23;30;28;
62591;PMS5003;48659;41.622;2.276;2024-01-16T00:34:50;50;39;
62591;PMS5003;48659;41.622;2.276;2024-01-16T00:37:18;49;40;
62591;PMS5003;48659;41.622;2.276;2024-01-16T00:39:46;35;29;
62591;PMS5003;48659;41.622;2.276;2024-01-16T00:42:13;38;34;
62591;PMS5003;48659;41.622;2.276;2024-01-16T00:44:41;34;32;
62591;PMS5003;48659;41.622;2.276;2024-01-16T00:47:09;36;34;
62591;PMS5003;48659;41.622;2.276;2024-01-16T00:49:36;39;31;
62591;PMS5003;48659;41.622;2.276;2024-01-16T00:52:04;33;29;
62591;PMS5003;48659;41.622;2.276;2024-01-16T00:54:42;33;30;
62591;PMS5003;48659;41.622;2.276;2024-01-16T00:57:10;32;28;
62591;PMS5003;48659;41.622;2.276;2024-01-16T00:59:41;33;31;
62591;PMS5003;48659;41.622;2.276;2024-01-16T01:02:10;25;25;
62591;PMS5003;48659;41.622;2.276;2024-01-16T01:04:41;34;31;
62591;PMS5003;48659;41.622;2.276;2024-01-16T01:07:08;30;26;
62591;PMS5003;48659;41.622;2.276;2024-01-16T01:09:39;31;31;
62591;PMS5003;48659;41.622;2.276;2024-01-16T01:12:07;33;31;
62591;PMS5003;48659;41.622;2.276;2024-01-16T01:14:41;28;27;
62591;PMS5003;48659;41.622;2.276;2024-01-16T01:17:09;37;32;
62591;PMS5003;48659;41.622;2.276;2024-01-16T01:19:39;40;34;
62591;PMS5003;48659;41.622;2.276;2024-01-16T01:22:07;36;33;
62591;PMS5003;48659;41.622;2.276;2024-01-16T01:24:40;30;29;
62591;PMS5003;48659;41.622;2.276;2024-01-16T01:27:07;33;28;
62591;PMS5003;48659;41.622;2.276;2024-01-16T01:29:35;30;26;
62591;PMS5003;48659;41.622;2.276;2024-01-16T01:32:02;40;36;
62591;PMS5003;48659;41.622;2.276;2024-01-16T01:34:30;35;27;
62591;PMS5003;48659;41.622;2.276;2024-01-16T01:36:57;32;28;
62591;PMS5003;48659;41.622;2.276;2024-01-16T01:39:25;30;26;
62591;PMS5003;48659;41.622;2.276;2024-01-16T01:41:58;29;27;
62591;PMS5003;48659;41.622;2.276;2024-01-16T01:44:25;33;26;
62591;PMS5003;48659;41.622;2.276;2024-01-16T01:46:54;35;34;
62591;PMS5003;48659;41.622;2.276;2024-01-16T01:49:24;37;32;
62591;PMS5003;48659;41.622;2.276;2024-01-16T01:51:54;33;30;
62591;PMS5003;48659;41.622;2.276;2024-01-16T01:54:21;34;26;
62591;PMS5003;48659;41.622;2.276;2024-01-16T01:56:49;30;28;
62591;PMS5003;48659;41.622;2.276;2024-01-16T01:59:17;28;26;
62591;PMS5003;48659;41.622;2.276;2024-01-16T02:01:47;29;29;
62591;PMS5003;48659;41.622;2.276;2024-01-16T02:04:16;33;30;
62591;PMS5003;48659;41.622;2.276;2024-01-16T02:06:44;32;32;
62591;PMS5003;48659;41.622;2.276;2024-01-16T02:14:58;34;31;
62591;PMS5003;48659;41.622;2.276;2024-01-16T02:17:26;30;29;
62591;PMS5003;48659;41.622;2.276;2024-01-16T02:19:53;30;26;
62591;PMS5003;48659;41.622;2.276;2024-01-16T02:22:20;28;27;
62591;PMS5003;48659;41.622;2.276;2024-01-16T02:25:00;28;28;
62591;PMS5003;48659;41.622;2.276;2024-01-16T02:27:28;40;29;
62591;PMS5003;48659;41.622;2.276;2024-01-16T02:30:03;37;29;
62591;PMS5003;48659;41.622;2.276;2024-01-16T02:32:31;29;27;
62591;PMS5003;48659;41.622;2.276;2024-01-16T02:34:58;37;34;
62591;PMS5003;48659;41.622;2.276;2024-01-16T02:37:25;37;35;
62591;PMS5003;48659;41.622;2.276;2024-01-16T02:39:53;31;28;
62591;PMS5003;48659;41.622;2.276;2024-01-16T02:42:20;41;37;
62591;PMS5003;48659;41.622;2.276;2024-01-16T02:44:49;38;34;
62591;PMS5003;48659;41.622;2.276;2024-01-16T02:47:16;33;33;
62591;PMS5003;48659;41.622;2.276;2024-01-16T02:49:49;36;35;
62591;PMS5003;48659;41.622;2.276;2024-01-16T02:52:17;44;38;
62591;PMS5003;48659;41.622;2.276;2024-01-16T02:54:49;38;31;
62591;PMS5003;48659;41.622;2.276;2024-01-16T02:57:17;39;35;
62591;PMS5003;48659;41.622;2.276;2024-01-16T02:59:48;39;34;
62591;PMS5003;48659;41.622;2.276;2024-01-16T03:02:16;50;41;
62591;PMS5003;48659;41.622;2.276;2024-01-16T03:04:48;48;43;
62591;PMS5003;48659;41.622;2.276;2024-01-16T03:07:16;41;36;
62591;PMS5003;48659;41.622;2.276;2024-01-16T03:09:48;39;31;
62591;PMS5003;48659;41.622;2.276;2024-01-16T03:12:16;33;31;
62591;PMS5003;48659;41.622;2.276;2024-01-16T03:14:43;34;32;
62591;PMS5003;48659;41.622;2.276;2024-01-16T03:17:11;39;34;
62591;PMS5003;48659;41.622;2.276;2024-01-16T03:19:38;43;35;
62591;PMS5003;48659;41.622;2.276;2024-01-16T03:22:05;40;34;
62591;PMS5003;48659;41.622;2.276;2024-01-16T03:24:33;32;27;
62591;PMS5003;48659;41.622;2.276;2024-01-16T03:27:01;28;26;
62591;PMS5003;48659;41.622;2.276;2024-01-16T03:29:34;35;31;
62591;PMS5003;48659;41.622;2.276;2024-01-16T03:32:02;25;25;
62591;PMS5003;48659;41.622;2.276;2024-01-16T03:34:30;33;30;
62591;PMS5003;48659;41.622;2.276;2024-01-16T03:36:57;32;28;
62591;PMS5003;48659;41.622;2.276;2024-01-16T03:39:25;36;31;
62591;PMS5003;48659;41.622;2.276;2024-01-16T03:41:52;35;25;
62591;PMS5003;48659;41.622;2.276;2024-01-16T03:44:20;25;24;
62591;PMS5003;48659;41.622;2.276;2024-01-16T03:46:47;33;28;
62591;PMS5003;48659;41.622;2.276;2024-01-16T03:49:14;25;24;
62591;PMS5003;48659;41.622;2.276;2024-01-16T03:51:43;41;31;
62591;PMS5003;48659;41.622;2.276;2024-01-16T03:54:11;37;30;
62591;PMS5003;48659;41.622;2.276;2024-01-16T03:56:38;29;26;
62591;PMS5003;48659;41.622;2.276;2024-01-16T03:59:06;30;28;
62591;PMS5003;48659;41.622;2.276;2024-01-16T04:01:34;43;41;
62591;PMS5003;48659;41.622;2.276;2024-01-16T04:04:02;34;30;
62591;PMS5003;48659;41.622;2.276;2024-01-16T04:06:30;32;29;
62591;PMS5003;48659;41.622;2.276;2024-01-16T04:08:57;35;33;
62591;PMS5003;48659;41.622;2.276;2024-01-16T04:11:24;38;34;
62591;PMS5003;48659;41.622;2.276;2024-01-16T04:13:52;25;24;
62591;PMS5003;48659;41.622;2.276;2024-01-16T04:16:20;31;27;
62591;PMS5003;48659;41.622;2.276;2024-01-16T04:18:47;22;22;
62591;PMS5003;48659;41.622;2.276;2024-01-16T04:21:14;21;18;
62591;PMS5003;48659;41.622;2.276;2024-01-16T04:23:42;26;19;
62591;PMS5003;48659;41.622;2.276;2024-01-16T04:26:09;21;21;
62591;PMS5003;48659;41.622;2.276;2024-01-16T04:28:37;24;19;
62591;PMS5003;48659;41.622;2.276;2024-01-16T04:31:05;20;17;
62591;PMS5003;48659;41.622;2.276;2024-01-16T04:33:32;24;24;
62591;PMS5003;48659;41.622;2.276;2024-01-16T04:36:00;21;20;
62591;PMS5003;48659;41.622;2.276;2024-01-16T04:38:27;23;21;
62591;PMS5003;48659;41.622;2.276;2024-01-16T04:40:55;28;21;
62591;PMS5003;48659;41.622;2.276;2024-01-16T04:43:22;18;17;
62591;PMS5003;48659;41.622;2.276;2024-01-16T04:45:51;24;21;
62591;PMS5003;48659;41.622;2.276;2024-01-16T04:48:18;20;18;
62591;PMS5003;48659;41.622;2.276;2024-01-16T04:51:01;17;16;
62591;PMS5003;48659;41.622;2.276;2024-01-16T04:53:28;22;18;
62591;PMS5003;48659;41.622;2.276;2024-01-16T04:55:56;25;23;
62591;PMS5003;48659;41.622;2.276;2024-01-16T04:58:30;18;17;
62591;PMS5003;48659;41.622;2.276;2024-01-16T05:01:03;27;26;
62591;PMS5003;48659;41.622;2.276;2024-01-16T05:03:30;15;15;
62591;PMS5003;48659;41.622;2.276;2024-01-16T05:05:58;23;19;
62591;PMS5003;48659;41.622;2.276;2024-01-16T05:08:25;32;31;
62591;PMS5003;48659;41.622;2.276;2024-01-16T05:10:53;42;36;
62591;PMS5003;48659;41.622;2.276;2024-01-16T05:13:21;41;38;
62591;PMS5003;48659;41.622;2.276;2024-01-16T05:15:48;33;29;
62591;PMS5003;48659;41.622;2.276;2024-01-16T05:18:16;42;34;
62591;PMS5003;48659;41.622;2.276;2024-01-16T05:20:44;34;34;
62591;PMS5003;48659;41.622;2.276;2024-01-16T05:23:11;38;35;
62591;PMS5003;48659;41.622;2.276;2024-01-16T05:25:39;37;36;
62591;PMS5003;48659;41.622;2.276;2024-01-16T05:28:07;43;38;
62591;PMS5003;48659;41.622;2.276;2024-01-16T05:30:35;45;38;
62591;PMS5003;48659;41.622;2.276;2024-01-16T05:33:04;36;32;
62591;PMS5003;48659;41.622;2.276;2024-01-16T05:35:31;44;35;
62591;PMS5003;48659;41.622;2.276;2024-01-16T05:37:59;38;33;
62591;PMS5003;48659;41.622;2.276;2024-01-16T05:40:27;40;38;
62591;PMS5003;48659;41.622;2.276;2024-01-16T05:42:56;46;39;
62591;PMS5003;48659;41.622;2.276;2024-01-16T05:45:24;37;37;
62591;PMS5003;48659;41.622;2.276;2024-01-16T05:47:52;44;36;
62591;PMS5003;48659;41.622;2.276;2024-01-16T05:50:19;52;38;
62591;PMS5003;48659;41.622;2.276;2024-01-16T05:52:49;43;36;
62591;PMS5003;48659;41.622;2.276;2024-01-16T05:55:17;42;39;
62591;PMS5003;48659;41.622;2.276;2024-01-16T05:57:49;37;33;
62591;PMS5003;48659;41.622;2.276;2024-01-16T06:00:17;46;36;
62591;PMS5003;48659;41.622;2.276;2024-01-16T06:02:48;42;37;
62591;PMS5003;48659;41.622;2.276;2024-01-16T06:05:16;41;37;
62591;PMS5003;48659;41.622;2.276;2024-01-16T06:07:50;44;39;
62591;PMS5003;48659;41.622;2.276;2024-01-16T06:10:18;45;41;
62591;PMS5003;48659;41.622;2.276;2024-01-16T06:12:45;36;33;
62591;PMS5003;48659;41.622;2.276;2024-01-16T06:15:13;41;38;
62591;PMS5003;48659;41.622;2.276;2024-01-16T06:17:41;42;38;
62591;PMS5003;48659;41.622;2.276;2024-01-16T06:20:09;50;41;
62591;PMS5003;48659;41.622;2.276;2024-01-16T06:22:36;46;38;
62591;PMS5003;48659;41.622;2.276;2024-01-16T06:25:04;52;45;
62591;PMS5003;48659;41.622;2.276;2024-01-16T06:27:32;53;41;
62591;PMS5003;48659;41.622;2.276;2024-01-16T06:30:00;49;42;
62591;PMS5003;48659;41.622;2.276;2024-01-16T06:32:27;53;45;
62591;PMS5003;48659;41.622;2.276;2024-01-16T06:34:55;55;47;
62591;PMS5003;48659;41.622;2.276;2024-01-16T06:37:24;49;45;
62591;PMS5003;48659;41.622;2.276;2024-01-16T06:39:51;52;47;
62591;PMS5003;48659;41.622;2.276;2024-01-16T06:42:20;52;43;
62591;PMS5003;48659;41.622;2.276;2024-01-16T06:44:48;53;42;
62591;PMS5003;48659;41.622;2.276;2024-01-16T06:47:18;50;45;
62591;PMS5003;48659;41.622;2.276;2024-01-16T06:49:47;52;43;
62591;PMS5003;48659;41.622;2.276;2024-01-16T06:52:15;49;41;
62591;PMS5003;48659;41.622;2.276;2024-01-16T06:54:50;46;40;
62591;PMS5003;48659;41.622;2.276;2024-01-16T06:57:18;61;53;
62591;PMS5003;48659;41.622;2.276;2024-01-16T06:59:45;62;50;
62591;PMS5003;48659;41.622;2.276;2024-01-16T07:02:13;61;52;
62591;PMS5003;48659;41.622;2.276;2024-01-16T07:04:49;53;52;
62591;PMS5003;48659;41.622;2.276;2024-01-16T07:07:17;72;53;
62591;PMS5003;48659;41.622;2.276;2024-01-16T07:09:48;50;50;
62591;PMS5003;48659;41.622;2.276;2024-01-16T07:12:16;56;50;
62591;PMS5003;48659;41.622;2.276;2024-01-16T07:14:43;54;47;
62591;PMS5003;48659;41.622;2.276;2024-01-16T07:17:10;48;45;
62591;PMS5003;48659;41.622;2.276;2024-01-16T07:19:38;52;45;
62591;PMS5003;48659;41.622;2.276;2024-01-16T07:22:06;50;45;
62591;PMS5003;48659;41.622;2.276;2024-01-16T07:24:34;70;55;
62591;PMS5003;48659;41.622;2.276;2024-01-16T07:27:01;46;41;
62591;PMS5003;48659;41.622;2.276;2024-01-16T07:29:29;51;42;
62591;PMS5003;48659;41.622;2.276;2024-01-16T07:31:57;58;51;
62591;PMS5003;48659;41.622;2.276;2024-01-16T07:34:24;55;49;
62591;PMS5003;48659;41.622;2.276;2024-01-16T07:36:52;57;45;
62591;PMS5003;48659;41.622;2.276;2024-01-16T07:39:19;51;47;
62591;PMS5003;48659;41.622;2.276;2024-01-16T07:41:49;56;49;
62591;PMS5003;48659;41.622;2.276;2024-01-16T07:44:17;47;43;
62591;PMS5003;48659;41.622;2.276;2024-01-16T07:46:49;57;54;
62591;PMS5003;48659;41.622;2.276;2024-01-16T07:49:17;52;47;
62591;PMS5003;48659;41.622;2.276;2024-01-16T07:51:50;54;47;
62591;PMS5003;48659;41.622;2.276;2024-01-16T07:54:17;61;53;
62591;PMS5003;48659;41.622;2.276;2024-01-16T07:56:52;68;57;
62591;PMS5003;48659;41.622;2.276;2024-01-16T07:59:19;70;59;
62591;PMS5003;48659;41.622;2.276;2024-01-16T08:01:50;78;70;
62591;PMS5003;48659;41.622;2.276;2024-01-16T08:04:17;105;82;
62591;PMS5003;48659;41.622;2.276;2024-01-16T08:06:49;86;75;
62591;PMS5003;48659;41.622;2.276;2024-01-16T08:09:17;83;68;
62591;PMS5003;48659;41.622;2.276;2024-01-16T08:11:49;69;58;
62591;PMS5003;48659;41.622;2.276;2024-01-16T08:14:18;64;51;
62591;PMS5003;48659;41.622;2.276;2024-01-16T08:16:45;64;53;
62591;PMS5003;48659;41.622;2.276;2024-01-16T08:19:13;66;58;
62591;PMS5003;48659;41.622;2.276;2024-01-16T08:21:50;58;52;
62591;PMS5003;48659;41.622;2.276;2024-01-16T08:24:18;51;49;
62591;PMS5003;48659;41.622;2.276;2024-01-16T08:26:50;56;53;
62591;PMS5003;48659;41.622;2.276;2024-01-16T08:29:18;48;46;
62591;PMS5003;48659;41.622;2.276;2024-01-16T08:31:52;57;52;
62591;PMS5003;48659;41.622;2.276;2024-01-16T08:34:20;61;50;
62591;PMS5003;48659;41.622;2.276;2024-01-16T08:36:47;56;51;
62591;PMS5003;48659;41.622;2.276;2024-01-16T08:39:14;61;46;
62591;PMS5003;48659;41.622;2.276;2024-01-16T08:41:41;62;49;
62591;PMS5003;48659;41.622;2.276;2024-01-16T08:44:09;56;45;
62591;PMS5003;48659;41.622;2.276;2024-01-16T08:46:37;64;57;
62591;PMS5003;48659;41.622;2.276;2024-01-16T08:49:04;55;49;
62591;PMS5003;48659;41.622;2.276;2024-01-16T08:51:32;62;54;
62591;PMS5003;48659;41.622;2.276;2024-01-16T08:54:00;58;52;
62591;PMS5003;48659;41.622;2.276;2024-01-16T08:56:27;48;42;
62591;PMS5003;48659;41.622;2.276;2024-01-16T08:58:55;62;53;
62591;PMS5003;48659;41.622;2.276;2024-01-16T09:01:23;65;56;
62591;PMS5003;48659;41.622;2.276;2024-01-16T09:03:50;57;46;
62591;PMS5003;48659;41.622;2.276;2024-01-16T09:06:18;67;51;
62591;PMS5003;48659;41.622;2.276;2024-01-16T09:08:49;55;42;
62591;PMS5003;48659;41.622;2.276;2024-01-16T09:11:17;53;44;
62591;PMS5003;48659;41.622;2.276;2024-01-16T09:13:49;56;46;
62591;PMS5003;48659;41.622;2.276;2024-01-16T09:16:16;60;50;
62591;PMS5003;48659;41.622;2.276;2024-01-16T09:18:50;55;49;
62591;PMS5003;48659;41.622;2.276;2024-01-16T09:21:18;53;47;
62591;PMS5003;48659;41.622;2.276;2024-01-16T09:23:50;56;50;
62591;PMS5003;48659;41.622;2.276;2024-01-16T09:26:18;53;48;
62591;PMS5003;48659;41.622;2.276;2024-01-16T09:28:49;55;48;
62591;PMS5003;48659;41.622;2.276;2024-01-16T09:31:16;56;46;
62591;PMS5003;48659;41.622;2.276;2024-01-16T09:33:48;49;45;
62591;PMS5003;48659;41.622;2.276;2024-01-16T09:36:16;57;47;
62591;PMS5003;48659;41.622;2.276;2024-01-16T09:38:44;53;48;
62591;PMS5003;48659;41.622;2.276;2024-01-16T09:41:13;46;43;
62591;PMS5003;48659;41.622;2.276;2024-01-16T09:43:57;55;51;
62591;PMS5003;48659;41.622;2.276;2024-01-16T09:46:25;52;50;
62591;PMS5003;48659;41.622;2.276;2024-01-16T09:48:53;48;44;
62591;PMS5003;48659;41.622;2.276;2024-01-16T09:51:22;56;51;
62591;PMS5003;48659;41.622;2.276;2024-01-16T09:53:49;47;41;
62591;PMS5003;48659;41.622;2.276;2024-01-16T09:56:18;53;50;
62591;PMS5003;48659;41.622;2.276;2024-01-16T09:58:51;44;40;
62591;PMS5003;48659;41.622;2.276;2024-01-16T10:01:23;49;47;
62591;PMS5003;48659;41.622;2.276;2024-01-16T10:03:53;57;49;
62591;PMS5003;48659;41.622;2.276;2024-01-16T10:06:21;53;48;
62591;PMS5003;48659;41.622;2.276;2024-01-16T10:08:50;62;49;
62591;PMS5003;48659;41.622;2.276;2024-01-16T10:11:18;56;50;
62591;PMS5003;48659;41.622;2.276;2024-01-16T10:13:45;50;46;
62591;PMS5003;48659;41.622;2.276;2024-01-16T10:16:13;50;41;
62591;PMS5003;48659;41.622;2.276;2024-01-16T10:18:48;53;47;
62591;PMS5003;48659;41.622;2.276;2024-01-16T10:21:20;46;39;
62591;PMS5003;48659;41.622;2.276;2024-01-16T10:23:49;40;36;
62591;PMS5003;48659;41.622;2.276;2024-01-16T10:26:17;40;39;
62591;PMS5003;48659;41.622;2.276;2024-01-16T10:28:59;36;31;
62591;PMS5003;48659;41.622;2.276;2024-01-16T10:31:30;30;28;
62591;PMS5003;48659;41.622;2.276;2024-01-16T10:33:58;31;26;
62591;PMS5003;48659;41.622;2.276;2024-01-16T10:36:26;31;28;
62591;PMS5003;48659;41.622;2.276;2024-01-16T10:38:54;24;23;
62591;PMS5003;48659;41.622;2.276;2024-01-16T10:41:30;30;26;
62591;PMS5003;48659;41.622;2.276;2024-01-16T10:44:03;23;20;
62591;PMS5003;48659;41.622;2.276;2024-01-16T10:46:31;22;19;
62591;PMS5003;48659;41.622;2.276;2024-01-16T10:48:59;27;21;
62591;PMS5003;48659;41.622;2.276;2024-01-16T10:51:28;26;22;
62591;PMS5003;48659;41.622;2.276;2024-01-16T10:53:57;27;25;
62591;PMS5003;48659;41.622;2.276;2024-01-16T10:56:27;26;24;
62591;PMS5003;48659;41.622;2.276;2024-01-16T10:58:57;29;26;
62591;PMS5003;48659;41.622;2.276;2024-01-16T11:01:32;28;24;
62591;PMS5003;48659;41.622;2.276;2024-01-16T11:04:01;36;30;
62591;PMS5003;48659;41.622;2.276;2024-01-16T11:06:29;23;23;
62591;PMS5003;48659;41.622;2.276;2024-01-16T11:08:59;28;24;
62591;PMS5003;48659;41.622;2.276;2024-01-16T11:11:27;27;26;
62591;PMS5003;48659;41.622;2.276;2024-01-16T11:13:55;22;19;
62591;PMS5003;48659;41.622;2.276;2024-01-16T11:16:23;30;28;
62591;PMS5003;48659;41.622;2.276;2024-01-16T11:18:51;27;24;
62591;PMS5003;48659;41.622;2.276;2024-01-16T11:21:19;23;22;
62591;PMS5003;48659;41.622;2.276;2024-01-16T11:23:47;27;23;
62591;PMS5003;48659;41.622;2.276;2024-01-16T11:26:24;25;24;
62591;PMS5003;48659;41.622;2.276;2024-01-16T11:28:52;23;20;
62591;PMS5003;48659;41.622;2.276;2024-01-16T11:31:35;31;24;
62591;PMS5003;48659;41.622;2.276;2024-01-16T11:34:02;30;28;
62591;PMS5003;48659;41.622;2.276;2024-01-16T11:37:03;36;30;
62591;PMS5003;48659;41.622;2.276;2024-01-16T11:39:34;37;32;
62591;PMS5003;48659;41.622;2.276;2024-01-16T11:42:01;31;31;
62591;PMS5003;48659;41.622;2.276;2024-01-16T11:44:38;32;30;
62591;PMS5003;48659;41.622;2.276;2024-01-16T11:47:08;47;43;
62591;PMS5003;48659;41.622;2.276;2024-01-16T11:49:36;34;33;
62591;PMS5003;48659;41.622;2.276;2024-01-16T11:52:04;33;29;
62591;PMS5003;48659;41.622;2.276;2024-01-16T11:54:32;37;32;
62591;PMS5003;48659;41.622;2.276;2024-01-16T11:57:05;39;32;
62591;PMS5003;48659;41.622;2.276;2024-01-16T12:00:05;37;31;
62591;PMS5003;48659;41.622;2.276;2024-01-16T12:02:38;26;26;
62591;PMS5003;48659;41.622;2.276;2024-01-16T12:05:21;23;21;
62591;PMS5003;48659;41.622;2.276;2024-01-16T12:07:50;31;24;
62591;PMS5003;48659;41.622;2.276;2024-01-16T12:10:19;27;23;
62591;PMS5003;48659;41.622;2.276;2024-01-16T12:12:48;27;24;
62591;PMS5003;48659;41.622;2.276;2024-01-16T12:15:16;26;25;
62591;PMS5003;48659;41.622;2.276;2024-01-16T12:17:52;29;28;
62591;PMS5003;48659;41.622;2.276;2024-01-16T12:20:21;25;24;
62591;PMS5003;48659;41.622;2.276;2024-01-16T12:22:54;27;23;
62591;PMS5003;48659;41.622;2.276;2024-01-16T12:25:23;28;25;
62591;PMS5003;48659;41.622;2.276;2024-01-16T12:27:55;28;24;
62591;PMS5003;48659;41.622;2.276;2024-01-16T12:30:24;25;22;
62591;PMS5003;48659;41.622;2.276;2024-01-16T12:32:52;28;24;
62591;PMS5003;48659;41.622;2.276;2024-01-16T12:35:20;32;28;
62591;PMS5003;48659;41.622;2.276;2024-01-16T12:37:57;30;24;
62591;PMS5003;48659;41.622;2.276;2024-01-16T12:40:25;28;26;
62591;PMS5003;48659;41.622;2.276;2024-01-16T12:42:53;27;25;
62591;PMS5003;48659;41.622;2.276;2024-01-16T12:45:21;31;27;
62591;PMS5003;48659;41.622;2.276;2024-01-16T12:47:50;24;20;
62591;PMS5003;48659;41.622;2.276;2024-01-16T12:50:19;20;19;
62591;PMS5003;48659;41.622;2.276;2024-01-16T12:52:48;29;25;
62591;PMS5003;48659;41.622;2.276;2024-01-16T12:55:15;22;21;
62591;PMS5003;48659;41.622;2.276;2024-01-16T12:57:49;28;26;
62591;PMS5003;48659;41.622;2.276;2024-01-16T13:00:38;31;25;
62591;PMS5003;48659;41.622;2.276;2024-01-16T13:03:06;29;28;
62591;PMS5003;48659;41.622;2.276;2024-01-16T13:05:34;26;26;
62591;PMS5003;48659;41.622;2.276;2024-01-16T13:08:02;27;25;
62591;PMS5003;48659;41.622;2.276;2024-01-16T13:10:30;23;22;
62591;PMS5003;48659;41.622;2.276;2024-01-16T13:13:14;20;19;
62591;PMS5003;48659;41.622;2.276;2024-01-16T13:15:42;36;35;
62591;PMS5003;48659;41.622;2.276;2024-01-16T13:18:18;25;19;
62591;PMS5003;48659;41.622;2.276;2024-01-16T13:20:50;23;23;
62591;PMS5003;48659;41.622;2.276;2024-01-16T13:23:19;22;18;
62591;PMS5003;48659;41.622;2.276;2024-01-16T13:25:48;26;24;
62591;PMS5003;48659;41.622;2.276;2024-01-16T13:28:16;17;17;
62591;PMS5003;48659;41.622;2.276;2024-01-16T13:30:45;21;19;
62591;PMS5003;48659;41.622;2.276;2024-01-16T13:33:14;20;20;
62591;PMS5003;48659;41.622;2.276;2024-01-16T13:35:50;25;22;
62591;PMS5003;48659;41.622;2.276;2024-01-16T13:38:18;21;19;
62591;PMS5003;48659;41.622;2.276;2024-01-16T13:40:52;28;22;
62591;PMS5003;48659;41.622;2.276;2024-01-16T13:43:19;24;18;
62591;PMS5003;48659;41.622;2.276;2024-01-16T13:45:47;19;18;
62591;PMS5003;48659;41.622;2.276;2024-01-16T13:48:14;25;22;
62591;PMS5003;48659;41.622;2.276;2024-01-16T13:50:58;23;19;
62591;PMS5003;48659;41.622;2.276;2024-01-16T13:53:25;23;20;
62591;PMS5003;48659;41.622;2.276;2024-01-16T13:55:52;21;20;
62591;PMS5003;48659;41.622;2.276;2024-01-16T13:58:20;20;17;
62591;PMS5003;48659;41.622;2.276;2024-01-16T14:00:47;23;23;
62591;PMS5003;48659;41.622;2.276;2024-01-16T14:03:14;29;20;
62591;PMS5003;48659;41.622;2.276;2024-01-16T14:05:50;23;21;
62591;PMS5003;48659;41.622;2.276;2024-01-16T14:08:18;27;24;
62591;PMS5003;48659;41.622;2.276;2024-01-16T14:10:46;26;22;
62591;PMS5003;48659;41.622;2.276;2024-01-16T14:13:13;28;26;
62591;PMS5003;48659;41.622;2.276;2024-01-16T14:15:41;29;27;
62591;PMS5003;48659;41.622;2.276;2024-01-16T14:18:09;33;30;
62591;PMS5003;48659;41.622;2.276;2024-01-16T14:20:36;27;26;
62591;PMS5003;48659;41.622;2.276;2024-01-16T14:23:04;33;24;
62591;PMS5003;48659;41.622;2.276;2024-01-16T14:25:31;27;21;
62591;PMS5003;48659;41.622;2.276;2024-01-16T14:28:01;25;21;
62591;PMS5003;48659;41.622;2.276;2024-01-16T14:30:31;28;22;
62591;PMS5003;48659;41.622;2.276;2024-01-16T14:33:00;27;23;
62591;PMS5003;48659;41.622;2.276;2024-01-16T14:35:27;23;23;
62591;PMS5003;48659;41.622;2.276;2024-01-16T14:37:54;23;21;
62591;PMS5003;48659;41.622;2.276;2024-01-16T14:40:23;28;24;
62591;PMS5003;48659;41.622;2.276;2024-01-16T14:42:50;28;25;
62591;PMS5003;48659;41.622;2.276;2024-01-16T14:45:18;22;17;
62591;PMS5003;48659;41.622;2.276;2024-01-16T14:47:46;22;15;
62591;PMS5003;48659;41.622;2.276;2024-01-16T14:50:14;29;29;
62591;PMS5003;48659;41.622;2.276;2024-01-16T14:52:59;37;34;
62591;PMS5003;48659;41.622;2.276;2024-01-16T14:55:27;26;21;
62591;PMS5003;48659;41.622;2.276;2024-01-16T14:57:54;22;19;
62591;PMS5003;48659;41.622;2.276;2024-01-16T15:00:22;22;22;
62591;PMS5003;48659;41.622;2.276;2024-01-16T15:02:49;21;20;
62591;PMS5003;48659;41.622;2.276;2024-01-16T15:05:17;23;21;
62591;PMS5003;48659;41.622;2.276;2024-01-16T15:07:50;22;19;
62591;PMS5003;48659;41.622;2.276;2024-01-16T15:10:19;21;21;
62591;PMS5003;48659;41.622;2.276;2024-01-16T15:12:50;24;19;
62591;PMS5003;48659;41.622;2.276;2024-01-16T15:15:17;21;19;
62591;PMS5003;48659;41.622;2.276;2024-01-16T15:17:45;23;20;
62591;PMS5003;48659;41.622;2.276;2024-01-16T15:20:12;27;21;
62591;PMS5003;48659;41.622;2.276;2024-01-16T15:22:40;24;22;
62591;PMS5003;48659;41.622;2.276;2024-01-16T15:25:23;18;18;
62591;PMS5003;48659;41.622;2.276;2024-01-16T15:27:51;30;27;
62591;PMS5003;48659;41.622;2.276;2024-01-16T15:30:19;28;26;
62591;PMS5003;48659;41.622;2.276;2024-01-16T15:32:49;31;26;
62591;PMS5003;48659;41.622;2.276;2024-01-16T15:35:16;21;18;
62591;PMS5003;48659;41.622;2.276;2024-01-16T15:37:44;28;25;
62591;PMS5003;48659;41.622;2.276;2024-01-16T15:40:11;24;21;
62591;PMS5003;48659;41.622;2.276;2024-01-16T15:42:39;22;20;
62591;PMS5003;48659;41.622;2.276;2024-01-16T15:45:07;20;18;
62591;PMS5003;48659;41.622;2.276;2024-01-16T15:47:35;28;20;
62591;PMS5003;48659;41.622;2.276;2024-01-16T15:50:03;21;19;
62591;PMS5003;48659;41.622;2.276;2024-01-16T15:52:31;18;17;
62591;PMS5003;48659;41.622;2.276;2024-01-16T15:54:59;22;18;
62591;PMS5003;48659;41.622;2.276;2024-01-16T15:57:27;15;15;
62591;PMS5003;48659;41.622;2.276;2024-01-16T15:59:54;28;23;
62591;PMS5003;48659;41.622;2.276;2024-01-16T16:02:22;20;16;
62591;PMS5003;48659;41.622;2.276;2024-01-16T16:04:50;18;17;
62591;PMS5003;48659;41.622;2.276;2024-01-16T16:07:18;22;20;
62591;PMS5003;48659;41.622;2.276;2024-01-16T16:09:49;25;24;
62591;PMS5003;48659;41.622;2.276;2024-01-16T16:12:17;22;18;
62591;PMS5003;48659;41.622;2.276;2024-01-16T16:14:44;21;19;
62591;PMS5003;48659;41.622;2.276;2024-01-16T16:17:11;16;15;
62591;PMS5003;48659;41.622;2.276;2024-01-16T16:19:40;17;15;
62591;PMS5003;48659;41.622;2.276;2024-01-16T16:22:07;29;26;
62591;PMS5003;48659;41.622;2.276;2024-01-16T16:24:34;20;20;
62591;PMS5003;48659;41.622;2.276;2024-01-16T16:27:02;26;25;
62591;PMS5003;48659;41.622;2.276;2024-01-16T16:29:49;25;21;
62591;PMS5003;48659;41.622;2.276;2024-01-16T16:32:18;27;25;
62591;PMS5003;48659;41.622;2.276;2024-01-16T16:34:50;27;25;
62591;PMS5003;48659;41.622;2.276;2024-01-16T16:37:18;28;23;